sensor_id;sensor_type;location;lat;lon;timestamp;P1;durP1;ratioP1;P2;durP2;ratioP2
25667;SDS011;18003;-33.830;151.202;2023-04-24T00:02:27;3.70;;;1.65;;
25667;SDS011;18003;-33.830;151.202;2023-04-24T00:04:58;4.40;;;1.60;;
25667;SDS011;18003;-33.830;151.202;2023-04-24T00:07:34;5.40;;;1.80;;
25667;SDS011;18003;-33.830;151.202;2023-04-24T00:10:00;8.35;;;1.85;;
25667;SDS011;18003;-33.830;151.202;2023-04-24T00:12:31;4.20;;;1.62;;
25667;SDS011;18003;-33.830;151.202;2023-04-24T00:15:01;3.80;;;1.32;;
25667;SDS011;18003;-33.830;151.202;2023-04-24T00:17:32;4.30;;;1.40;;
25667;SDS011;18003;-33.830;151.202;2023-04-24T00:20:02;3.90;;;1.40;;
25667;SDS011;18003;-33.830;151.202;2023-04-24T00:22:33;4.70;;;1.47;;
25667;SDS011;18003;-33.830;151.202;2023-04-24T00:25:03;6.20;;;1.85;;
25667;SDS011;18003;-33.830;151.202;2023-04-24T00:27:34;5.35;;;1.90;;
25667;SDS011;18003;-33.830;151.202;2023-04-24T00:30:05;3.67;;;1.67;;
25667;SDS011;18003;-33.830;151.202;2023-04-24T00:32:36;4.97;;;1.62;;
25667;SDS011;18003;-33.830;151.202;2023-04-24T00:35:06;4.95;;;2.25;;
25667;SDS011;18003;-33.830;151.202;2023-04-24T00:37:37;3.72;;;1.60;;
25667;SDS011;18003;-33.830;151.202;2023-04-24T00:40:08;5.45;;;1.50;;
25667;SDS011;18003;-33.830;151.202;2023-04-24T00:42:38;5.90;;;1.70;;
25667;SDS011;18003;-33.830;151.202;2023-04-24T00:45:09;6.58;;;1.80;;
25667;SDS011;18003;-33.830;151.202;2023-04-24T00:47:40;6.05;;;1.67;;
25667;SDS011;18003;-33.830;151.202;2023-04-24T00:50:10;9.48;;;1.72;;
25667;SDS011;18003;-33.830;151.202;2023-04-24T00:52:41;5.90;;;1.55;;
25667;SDS011;18003;-33.830;151.202;2023-04-24T00:55:11;3.22;;;1.52;;
25667;SDS011;18003;-33.830;151.202;2023-04-24T00:57:41;3.98;;;1.70;;
25667;SDS011;18003;-33.830;151.202;2023-04-24T01:00:13;7.20;;;1.90;;
25667;SDS011;18003;-33.830;151.202;2023-04-24T01:02:44;5.17;;;2.10;;
25667;SDS011;18003;-33.830;151.202;2023-04-24T01:05:14;5.47;;;1.75;;
25667;SDS011;18003;-33.830;151.202;2023-04-24T01:07:44;7.62;;;2.10;;
25667;SDS011;18003;-33.830;151.202;2023-04-24T01:10:15;3.25;;;1.70;;
25667;SDS011;18003;-33.830;151.202;2023-04-24T01:12:47;8.23;;;1.87;;
25667;SDS011;18003;-33.830;151.202;2023-04-24T01:15:18;3.40;;;1.37;;
25667;SDS011;18003;-33.830;151.202;2023-04-24T01:17:48;7.62;;;1.77;;
25667;SDS011;18003;-33.830;151.202;2023-04-24T01:20:18;7.65;;;1.70;;
25667;SDS011;18003;-33.830;151.202;2023-04-24T01:22:49;4.62;;;1.60;;
25667;SDS011;18003;-33.830;151.202;2023-04-24T01:25:19;5.55;;;1.57;;
25667;SDS011;18003;-33.830;151.202;2023-04-24T01:27:50;4.72;;;1.45;;
25667;SDS011;18003;-33.830;151.202;2023-04-24T01:30:20;4.33;;;1.47;;
25667;SDS011;18003;-33.830;151.202;2023-04-24T01:32:50;5.12;;;1.72;;
25667;SDS011;18003;-33.830;151.202;2023-04-24T01:35:21;5.58;;;1.60;;
25667;SDS011;18003;-33.830;151.202;2023-04-24T01:37:51;3.42;;;1.45;;
25667;SDS011;18003;-33.830;151.202;2023-04-24T01:40:21;5.12;;;1.80;;
25667;SDS011;18003;-33.830;151.202;2023-04-24T01:42:51;7.33;;;1.50;;
25667;SDS011;18003;-33.830;151.202;2023-04-24T01:45:21;5.75;;;1.90;;
25667;SDS011;18003;-33.830;151.202;2023-04-24T01:47:51;4.40;;;1.75;;
25667;SDS011;18003;-33.830;151.202;2023-04-24T01:50:21;4.65;;;1.70;;
25667;SDS011;18003;-33.830;151.202;2023-04-24T01:52:51;4.00;;;1.80;;
25667;SDS011;18003;-33.830;151.202;2023-04-24T01:55:22;6.17;;;1.85;;
25667;SDS011;18003;-33.830;151.202;2023-04-24T01:57:52;5.25;;;1.80;;
25667;SDS011;18003;-33.830;151.202;2023-04-24T02:02:52;10.43;;;2.15;;
25667;SDS011;18003;-33.830;151.202;2023-04-24T02:05:21;10.78;;;2.75;;
25667;SDS011;18003;-33.830;151.202;2023-04-24T02:07:52;8.95;;;2.60;;
25667;SDS011;18003;-33.830;151.202;2023-04-24T02:10:22;8.50;;;2.80;;
25667;SDS011;18003;-33.830;151.202;2023-04-24T02:12:52;9.70;;;2.83;;
25667;SDS011;18003;-33.830;151.202;2023-04-24T02:15:22;9.08;;;2.65;;
25667;SDS011;18003;-33.830;151.202;2023-04-24T02:17:52;9.85;;;3.42;;
25667;SDS011;18003;-33.830;151.202;2023-04-24T02:20:26;7.80;;;2.50;;
25667;SDS011;18003;-33.830;151.202;2023-04-24T02:23:05;8.18;;;2.47;;
25667;SDS011;18003;-33.830;151.202;2023-04-24T02:25:28;10.30;;;3.00;;
25667;SDS011;18003;-33.830;151.202;2023-04-24T02:27:58;10.55;;;2.80;;
25667;SDS011;18003;-33.830;151.202;2023-04-24T02:30:30;9.65;;;2.62;;
25667;SDS011;18003;-33.830;151.202;2023-04-24T02:33:00;12.53;;;3.30;;
25667;SDS011;18003;-33.830;151.202;2023-04-24T02:35:30;8.03;;;3.12;;
25667;SDS011;18003;-33.830;151.202;2023-04-24T02:38:03;16.55;;;3.22;;
25667;SDS011;18003;-33.830;151.202;2023-04-24T02:40:33;8.65;;;2.77;;
25667;SDS011;18003;-33.830;151.202;2023-04-24T02:43:03;7.78;;;2.77;;
25667;SDS011;18003;-33.830;151.202;2023-04-24T02:45:33;8.33;;;2.90;;
25667;SDS011;18003;-33.830;151.202;2023-04-24T02:48:04;8.93;;;2.67;;
25667;SDS011;18003;-33.830;151.202;2023-04-24T02:50:34;9.18;;;2.70;;
25667;SDS011;18003;-33.830;151.202;2023-04-24T02:53:04;9.25;;;3.20;;
25667;SDS011;18003;-33.830;151.202;2023-04-24T02:55:34;8.95;;;3.00;;
25667;SDS011;18003;-33.830;151.202;2023-04-24T02:58:04;10.50;;;3.65;;
25667;SDS011;18003;-33.830;151.202;2023-04-24T03:00:34;8.30;;;2.87;;
25667;SDS011;18003;-33.830;151.202;2023-04-24T03:03:05;11.70;;;3.12;;
25667;SDS011;18003;-33.830;151.202;2023-04-24T03:05:35;9.60;;;2.87;;
25667;SDS011;18003;-33.830;151.202;2023-04-24T03:08:05;12.63;;;3.10;;
25667;SDS011;18003;-33.830;151.202;2023-04-24T03:10:35;9.50;;;2.70;;
25667;SDS011;18003;-33.830;151.202;2023-04-24T03:13:05;8.60;;;2.87;;
25667;SDS011;18003;-33.830;151.202;2023-04-24T03:15:35;12.65;;;3.05;;
25667;SDS011;18003;-33.830;151.202;2023-04-24T03:18:05;11.55;;;2.75;;
25667;SDS011;18003;-33.830;151.202;2023-04-24T03:20:35;8.68;;;2.72;;
25667;SDS011;18003;-33.830;151.202;2023-04-24T03:23:05;8.13;;;2.85;;
25667;SDS011;18003;-33.830;151.202;2023-04-24T03:25:35;11.00;;;3.05;;
25667;SDS011;18003;-33.830;151.202;2023-04-24T03:28:05;16.62;;;3.10;;
25667;SDS011;18003;-33.830;151.202;2023-04-24T03:30:35;8.88;;;3.20;;
25667;SDS011;18003;-33.830;151.202;2023-04-24T03:33:05;10.30;;;3.05;;
25667;SDS011;18003;-33.830;151.202;2023-04-24T03:35:36;8.75;;;3.08;;
25667;SDS011;18003;-33.830;151.202;2023-04-24T03:38:06;15.05;;;3.60;;
25667;SDS011;18003;-33.830;151.202;2023-04-24T03:40:36;12.13;;;3.30;;
25667;SDS011;18003;-33.830;151.202;2023-04-24T03:43:06;12.05;;;3.20;;
25667;SDS011;18003;-33.830;151.202;2023-04-24T03:45:36;14.33;;;3.27;;
25667;SDS011;18003;-33.830;151.202;2023-04-24T03:48:07;15.30;;;3.83;;
25667;SDS011;18003;-33.830;151.202;2023-04-24T03:50:37;13.58;;;3.30;;
25667;SDS011;18003;-33.830;151.202;2023-04-24T03:53:07;10.80;;;3.50;;
25667;SDS011;18003;-33.830;151.202;2023-04-24T03:55:37;13.75;;;3.58;;
25667;SDS011;18003;-33.830;151.202;2023-04-24T03:58:07;8.63;;;2.80;;
25667;SDS011;18003;-33.830;151.202;2023-04-24T04:00:38;12.00;;;3.22;;
25667;SDS011;18003;-33.830;151.202;2023-04-24T04:03:08;13.03;;;2.98;;
25667;SDS011;18003;-33.830;151.202;2023-04-24T04:05:40;13.93;;;3.15;;
25667;SDS011;18003;-33.830;151.202;2023-04-24T04:08:10;12.13;;;3.65;;
25667;SDS011;18003;-33.830;151.202;2023-04-24T04:10:41;8.93;;;2.75;;
25667;SDS011;18003;-33.830;151.202;2023-04-24T04:13:11;11.90;;;3.15;;
25667;SDS011;18003;-33.830;151.202;2023-04-24T04:15:41;12.53;;;2.90;;
25667;SDS011;18003;-33.830;151.202;2023-04-24T04:18:11;12.75;;;3.25;;
25667;SDS011;18003;-33.830;151.202;2023-04-24T04:20:42;11.57;;;3.08;;
25667;SDS011;18003;-33.830;151.202;2023-04-24T04:23:12;10.55;;;2.90;;
25667;SDS011;18003;-33.830;151.202;2023-04-24T04:25:41;13.13;;;3.20;;
25667;SDS011;18003;-33.830;151.202;2023-04-24T04:28:11;11.15;;;2.98;;
25667;SDS011;18003;-33.830;151.202;2023-04-24T04:30:41;11.90;;;3.20;;
25667;SDS011;18003;-33.830;151.202;2023-04-24T04:33:11;12.50;;;3.17;;
25667;SDS011;18003;-33.830;151.202;2023-04-24T04:35:41;12.00;;;3.55;;
25667;SDS011;18003;-33.830;151.202;2023-04-24T04:38:11;15.68;;;3.80;;
25667;SDS011;18003;-33.830;151.202;2023-04-24T04:40:41;15.45;;;3.70;;
25667;SDS011;18003;-33.830;151.202;2023-04-24T04:43:11;12.63;;;3.83;;
25667;SDS011;18003;-33.830;151.202;2023-04-24T04:45:42;15.63;;;3.58;;
25667;SDS011;18003;-33.830;151.202;2023-04-24T04:48:12;17.65;;;4.42;;
25667;SDS011;18003;-33.830;151.202;2023-04-24T04:50:43;19.55;;;4.83;;
25667;SDS011;18003;-33.830;151.202;2023-04-24T04:53:13;16.77;;;4.28;;
25667;SDS011;18003;-33.830;151.202;2023-04-24T04:55:44;16.80;;;3.87;;
25667;SDS011;18003;-33.830;151.202;2023-04-24T04:58:15;17.20;;;4.03;;
25667;SDS011;18003;-33.830;151.202;2023-04-24T05:00:45;19.65;;;4.62;;
25667;SDS011;18003;-33.830;151.202;2023-04-24T05:03:16;18.50;;;3.80;;
25667;SDS011;18003;-33.830;151.202;2023-04-24T05:05:47;12.53;;;3.77;;
25667;SDS011;18003;-33.830;151.202;2023-04-24T05:08:17;15.75;;;4.12;;
25667;SDS011;18003;-33.830;151.202;2023-04-24T05:10:47;15.38;;;4.65;;
25667;SDS011;18003;-33.830;151.202;2023-04-24T05:13:17;23.77;;;5.03;;
25667;SDS011;18003;-33.830;151.202;2023-04-24T05:15:47;19.45;;;4.72;;
25667;SDS011;18003;-33.830;151.202;2023-04-24T05:18:17;19.12;;;5.12;;
25667;SDS011;18003;-33.830;151.202;2023-04-24T05:20:48;17.45;;;4.70;;
25667;SDS011;18003;-33.830;151.202;2023-04-24T05:23:19;20.02;;;4.95;;
25667;SDS011;18003;-33.830;151.202;2023-04-24T05:25:49;17.45;;;4.50;;
25667;SDS011;18003;-33.830;151.202;2023-04-24T05:28:19;20.32;;;4.83;;
25667;SDS011;18003;-33.830;151.202;2023-04-24T05:30:49;16.82;;;4.42;;
25667;SDS011;18003;-33.830;151.202;2023-04-24T05:33:19;15.03;;;4.25;;
25667;SDS011;18003;-33.830;151.202;2023-04-24T05:36:03;18.05;;;4.80;;
25667;SDS011;18003;-33.830;151.202;2023-04-24T05:38:30;18.65;;;4.37;;
25667;SDS011;18003;-33.830;151.202;2023-04-24T05:41:00;17.05;;;4.28;;
25667;SDS011;18003;-33.830;151.202;2023-04-24T05:43:30;17.20;;;4.87;;
25667;SDS011;18003;-33.830;151.202;2023-04-24T05:46:01;22.87;;;4.95;;
25667;SDS011;18003;-33.830;151.202;2023-04-24T05:48:32;19.25;;;4.17;;
25667;SDS011;18003;-33.830;151.202;2023-04-24T05:51:02;40.80;;;6.30;;
25667;SDS011;18003;-33.830;151.202;2023-04-24T05:53:33;51.98;;;8.78;;
25667;SDS011;18003;-33.830;151.202;2023-04-24T05:56:03;32.60;;;6.28;;
25667;SDS011;18003;-33.830;151.202;2023-04-24T05:58:33;24.30;;;5.42;;
25667;SDS011;18003;-33.830;151.202;2023-04-24T06:01:03;29.30;;;6.10;;
25667;SDS011;18003;-33.830;151.202;2023-04-24T06:03:33;24.23;;;4.65;;
25667;SDS011;18003;-33.830;151.202;2023-04-24T06:06:04;18.60;;;4.55;;
25667;SDS011;18003;-33.830;151.202;2023-04-24T06:08:35;20.15;;;4.30;;
25667;SDS011;18003;-33.830;151.202;2023-04-24T06:11:05;19.65;;;3.90;;
25667;SDS011;18003;-33.830;151.202;2023-04-24T06:13:35;15.10;;;3.90;;
25667;SDS011;18003;-33.830;151.202;2023-04-24T06:16:06;17.82;;;3.80;;
25667;SDS011;18003;-33.830;151.202;2023-04-24T06:18:36;13.18;;;3.70;;
25667;SDS011;18003;-33.830;151.202;2023-04-24T06:21:06;15.13;;;4.33;;
25667;SDS011;18003;-33.830;151.202;2023-04-24T06:23:36;18.32;;;4.33;;
25667;SDS011;18003;-33.830;151.202;2023-04-24T06:26:07;15.23;;;4.03;;
25667;SDS011;18003;-33.830;151.202;2023-04-24T06:28:37;17.33;;;4.70;;
25667;SDS011;18003;-33.830;151.202;2023-04-24T06:31:07;14.00;;;4.17;;
25667;SDS011;18003;-33.830;151.202;2023-04-24T06:33:37;11.75;;;3.60;;
25667;SDS011;18003;-33.830;151.202;2023-04-24T06:36:07;20.02;;;4.30;;
25667;SDS011;18003;-33.830;151.202;2023-04-24T06:38:37;19.25;;;4.35;;
25667;SDS011;18003;-33.830;151.202;2023-04-24T06:41:07;16.17;;;4.05;;
25667;SDS011;18003;-33.830;151.202;2023-04-24T06:43:38;18.23;;;4.20;;
25667;SDS011;18003;-33.830;151.202;2023-04-24T06:46:08;15.58;;;3.75;;
25667;SDS011;18003;-33.830;151.202;2023-04-24T06:48:38;13.03;;;3.60;;
25667;SDS011;18003;-33.830;151.202;2023-04-24T06:51:08;10.05;;;3.22;;
25667;SDS011;18003;-33.830;151.202;2023-04-24T06:53:39;12.75;;;3.42;;
25667;SDS011;18003;-33.830;151.202;2023-04-24T06:56:09;11.88;;;3.33;;
25667;SDS011;18003;-33.830;151.202;2023-04-24T06:58:39;13.83;;;3.40;;
25667;SDS011;18003;-33.830;151.202;2023-04-24T07:01:14;13.85;;;3.22;;
25667;SDS011;18003;-33.830;151.202;2023-04-24T07:03:50;9.28;;;2.72;;
25667;SDS011;18003;-33.830;151.202;2023-04-24T07:09:20;13.93;;;3.10;;
25667;SDS011;18003;-33.830;151.202;2023-04-24T07:11:54;10.80;;;3.20;;
25667;SDS011;18003;-33.830;151.202;2023-04-24T07:14:24;9.80;;;2.87;;
25667;SDS011;18003;-33.830;151.202;2023-04-24T07:17:01;10.45;;;2.80;;
25667;SDS011;18003;-33.830;151.202;2023-04-24T07:19:41;8.05;;;2.90;;
25667;SDS011;18003;-33.830;151.202;2023-04-24T07:22:23;10.08;;;2.62;;
25667;SDS011;18003;-33.830;151.202;2023-04-24T07:28:16;7.80;;;2.25;;
25667;SDS011;18003;-33.830;151.202;2023-04-24T07:33:59;5.50;;;2.20;;
25667;SDS011;18003;-33.830;151.202;2023-04-24T07:39:34;7.35;;;2.30;;
25667;SDS011;18003;-33.830;151.202;2023-04-24T07:42:08;5.58;;;2.17;;
25667;SDS011;18003;-33.830;151.202;2023-04-24T07:44:36;8.88;;;2.75;;
25667;SDS011;18003;-33.830;151.202;2023-04-24T07:47:07;5.62;;;2.30;;
25667;SDS011;18003;-33.830;151.202;2023-04-24T07:49:42;6.40;;;2.22;;
25667;SDS011;18003;-33.830;151.202;2023-04-24T07:52:22;8.63;;;2.60;;
25667;SDS011;18003;-33.830;151.202;2023-04-24T07:55:10;6.10;;;2.20;;
25667;SDS011;18003;-33.830;151.202;2023-04-24T08:01:02;7.72;;;2.40;;
25667;SDS011;18003;-33.830;151.202;2023-04-24T08:13:31;5.70;;;2.10;;
25667;SDS011;18003;-33.830;151.202;2023-04-24T08:16:02;8.93;;;2.60;;
25667;SDS011;18003;-33.830;151.202;2023-04-24T08:18:32;6.60;;;2.67;;
25667;SDS011;18003;-33.830;151.202;2023-04-24T08:21:02;7.05;;;2.60;;
25667;SDS011;18003;-33.830;151.202;2023-04-24T08:23:32;5.85;;;2.45;;
25667;SDS011;18003;-33.830;151.202;2023-04-24T08:26:02;6.45;;;2.80;;
25667;SDS011;18003;-33.830;151.202;2023-04-24T08:28:33;8.75;;;3.25;;
25667;SDS011;18003;-33.830;151.202;2023-04-24T08:31:04;7.80;;;2.90;;
25667;SDS011;18003;-33.830;151.202;2023-04-24T08:33:35;10.28;;;3.33;;
25667;SDS011;18003;-33.830;151.202;2023-04-24T08:36:10;8.45;;;3.12;;
25667;SDS011;18003;-33.830;151.202;2023-04-24T08:38:41;10.95;;;3.50;;
25667;SDS011;18003;-33.830;151.202;2023-04-24T08:41:12;8.33;;;3.20;;
25667;SDS011;18003;-33.830;151.202;2023-04-24T08:43:43;13.55;;;3.42;;
25667;SDS011;18003;-33.830;151.202;2023-04-24T08:46:14;9.33;;;3.12;;
25667;SDS011;18003;-33.830;151.202;2023-04-24T08:48:46;12.28;;;3.27;;
25667;SDS011;18003;-33.830;151.202;2023-04-24T08:51:17;14.93;;;3.37;;
25667;SDS011;18003;-33.830;151.202;2023-04-24T08:53:48;13.55;;;3.72;;
25667;SDS011;18003;-33.830;151.202;2023-04-24T08:56:19;9.73;;;3.52;;
25667;SDS011;18003;-33.830;151.202;2023-04-24T08:58:55;12.70;;;3.35;;
25667;SDS011;18003;-33.830;151.202;2023-04-24T09:01:21;11.50;;;3.65;;
25667;SDS011;18003;-33.830;151.202;2023-04-24T09:03:53;10.15;;;3.20;;
25667;SDS011;18003;-33.830;151.202;2023-04-24T09:06:24;13.78;;;3.83;;
25667;SDS011;18003;-33.830;151.202;2023-04-24T09:08:55;10.63;;;3.55;;
25667;SDS011;18003;-33.830;151.202;2023-04-24T09:11:32;9.88;;;3.20;;
25667;SDS011;18003;-33.830;151.202;2023-04-24T09:14:02;8.30;;;2.95;;
25667;SDS011;18003;-33.830;151.202;2023-04-24T09:16:33;10.73;;;3.40;;
25667;SDS011;18003;-33.830;151.202;2023-04-24T09:19:03;8.15;;;2.70;;
25667;SDS011;18003;-33.830;151.202;2023-04-24T09:21:34;9.63;;;3.62;;
25667;SDS011;18003;-33.830;151.202;2023-04-24T09:24:05;10.67;;;3.53;;
25667;SDS011;18003;-33.830;151.202;2023-04-24T09:26:36;8.53;;;3.08;;
25667;SDS011;18003;-33.830;151.202;2023-04-24T09:29:07;9.40;;;3.12;;
25667;SDS011;18003;-33.830;151.202;2023-04-24T09:31:38;12.30;;;3.27;;
25667;SDS011;18003;-33.830;151.202;2023-04-24T09:34:09;10.20;;;3.83;;
25667;SDS011;18003;-33.830;151.202;2023-04-24T09:36:39;11.35;;;3.70;;
25667;SDS011;18003;-33.830;151.202;2023-04-24T09:39:13;9.80;;;3.40;;
25667;SDS011;18003;-33.830;151.202;2023-04-24T09:41:52;11.08;;;3.37;;
25667;SDS011;18003;-33.830;151.202;2023-04-24T09:44:23;9.45;;;3.27;;
25667;SDS011;18003;-33.830;151.202;2023-04-24T09:46:54;9.95;;;3.25;;
25667;SDS011;18003;-33.830;151.202;2023-04-24T09:49:26;11.08;;;3.10;;
25667;SDS011;18003;-33.830;151.202;2023-04-24T09:52:07;10.10;;;3.60;;
25667;SDS011;18003;-33.830;151.202;2023-04-24T09:54:39;7.30;;;3.12;;
25667;SDS011;18003;-33.830;151.202;2023-04-24T09:57:08;5.72;;;2.90;;
25667;SDS011;18003;-33.830;151.202;2023-04-24T09:59:45;9.63;;;3.65;;
25667;SDS011;18003;-33.830;151.202;2023-04-24T10:02:18;8.03;;;3.30;;
25667;SDS011;18003;-33.830;151.202;2023-04-24T10:04:54;6.83;;;2.92;;
25667;SDS011;18003;-33.830;151.202;2023-04-24T10:07:26;9.00;;;3.20;;
25667;SDS011;18003;-33.830;151.202;2023-04-24T10:09:56;9.05;;;3.37;;
25667;SDS011;18003;-33.830;151.202;2023-04-24T10:12:26;8.73;;;3.25;;
25667;SDS011;18003;-33.830;151.202;2023-04-24T10:15:01;7.22;;;3.17;;
25667;SDS011;18003;-33.830;151.202;2023-04-24T10:17:32;8.05;;;2.87;;
25667;SDS011;18003;-33.830;151.202;2023-04-24T10:20:04;9.00;;;3.70;;
25667;SDS011;18003;-33.830;151.202;2023-04-24T10:22:35;6.83;;;2.90;;
25667;SDS011;18003;-33.830;151.202;2023-04-24T10:25:06;7.65;;;2.90;;
25667;SDS011;18003;-33.830;151.202;2023-04-24T10:27:37;7.67;;;2.98;;
25667;SDS011;18003;-33.830;151.202;2023-04-24T10:30:08;11.33;;;4.00;;
25667;SDS011;18003;-33.830;151.202;2023-04-24T10:35:12;10.53;;;4.70;;
25667;SDS011;18003;-33.830;151.202;2023-04-24T10:37:48;7.42;;;4.80;;
25667;SDS011;18003;-33.830;151.202;2023-04-24T10:40:25;9.53;;;5.83;;
25667;SDS011;18003;-33.830;151.202;2023-04-24T10:42:52;9.70;;;5.25;;
25667;SDS011;18003;-33.830;151.202;2023-04-24T10:45:24;11.35;;;5.15;;
25667;SDS011;18003;-33.830;151.202;2023-04-24T10:50:45;9.85;;;4.45;;
25667;SDS011;18003;-33.830;151.202;2023-04-24T10:53:19;7.80;;;3.98;;
25667;SDS011;18003;-33.830;151.202;2023-04-24T10:56:03;8.58;;;3.70;;
25667;SDS011;18003;-33.830;151.202;2023-04-24T10:58:38;7.40;;;3.40;;
25667;SDS011;18003;-33.830;151.202;2023-04-24T11:01:22;7.72;;;3.40;;
25667;SDS011;18003;-33.830;151.202;2023-04-24T11:03:54;8.00;;;3.50;;
25667;SDS011;18003;-33.830;151.202;2023-04-24T11:06:35;8.45;;;3.33;;
25667;SDS011;18003;-33.830;151.202;2023-04-24T11:09:04;6.47;;;3.60;;
25667;SDS011;18003;-33.830;151.202;2023-04-24T11:11:36;5.97;;;3.17;;
25667;SDS011;18003;-33.830;151.202;2023-04-24T11:14:07;7.92;;;3.45;;
25667;SDS011;18003;-33.830;151.202;2023-04-24T11:17:38;10.03;;;3.90;;
25667;SDS011;18003;-33.830;151.202;2023-04-24T11:19:22;8.30;;;3.83;;
25667;SDS011;18003;-33.830;151.202;2023-04-24T11:21:57;10.23;;;3.90;;
25667;SDS011;18003;-33.830;151.202;2023-04-24T11:24:38;8.63;;;4.58;;
25667;SDS011;18003;-33.830;151.202;2023-04-24T11:27:12;9.28;;;4.60;;
25667;SDS011;18003;-33.830;151.202;2023-04-24T11:32:30;8.43;;;4.22;;
25667;SDS011;18003;-33.830;151.202;2023-04-24T11:37:40;11.40;;;4.17;;
25667;SDS011;18003;-33.830;151.202;2023-04-24T11:40:12;7.10;;;3.72;;
25667;SDS011;18003;-33.830;151.202;2023-04-24T11:42:44;8.45;;;4.72;;
25667;SDS011;18003;-33.830;151.202;2023-04-24T11:45:15;9.48;;;4.83;;
25667;SDS011;18003;-33.830;151.202;2023-04-24T11:47:47;11.75;;;5.03;;
25667;SDS011;18003;-33.830;151.202;2023-04-24T11:50:18;8.80;;;4.70;;
25667;SDS011;18003;-33.830;151.202;2023-04-24T11:52:49;10.55;;;3.83;;
25667;SDS011;18003;-33.830;151.202;2023-04-24T11:57:56;10.35;;;4.30;;
25667;SDS011;18003;-33.830;151.202;2023-04-24T12:00:27;9.38;;;4.25;;
25667;SDS011;18003;-33.830;151.202;2023-04-24T12:03:06;6.95;;;3.70;;
25667;SDS011;18003;-33.830;151.202;2023-04-24T12:05:37;9.45;;;4.00;;
25667;SDS011;18003;-33.830;151.202;2023-04-24T12:08:07;7.85;;;3.50;;
25667;SDS011;18003;-33.830;151.202;2023-04-24T12:10:37;9.83;;;3.27;;
25667;SDS011;18003;-33.830;151.202;2023-04-24T12:13:08;8.20;;;3.85;;
25667;SDS011;18003;-33.830;151.202;2023-04-24T12:15:39;6.42;;;3.40;;
25667;SDS011;18003;-33.830;151.202;2023-04-24T12:18:11;9.05;;;3.75;;
25667;SDS011;18003;-33.830;151.202;2023-04-24T12:20:40;6.00;;;3.55;;
25667;SDS011;18003;-33.830;151.202;2023-04-24T12:23:14;10.25;;;3.45;;
25667;SDS011;18003;-33.830;151.202;2023-04-24T12:25:41;5.65;;;3.40;;
25667;SDS011;18003;-33.830;151.202;2023-04-24T12:28:13;6.42;;;3.30;;
25667;SDS011;18003;-33.830;151.202;2023-04-24T12:30:44;8.43;;;3.42;;
25667;SDS011;18003;-33.830;151.202;2023-04-24T12:33:17;9.70;;;3.55;;
25667;SDS011;18003;-33.830;151.202;2023-04-24T12:35:50;7.33;;;3.65;;
25667;SDS011;18003;-33.830;151.202;2023-04-24T12:38:23;8.40;;;3.95;;
25667;SDS011;18003;-33.830;151.202;2023-04-24T12:41:02;8.58;;;3.67;;
25667;SDS011;18003;-33.830;151.202;2023-04-24T12:43:52;7.47;;;3.40;;
25667;SDS011;18003;-33.830;151.202;2023-04-24T12:46:22;8.85;;;3.77;;
25667;SDS011;18003;-33.830;151.202;2023-04-24T12:48:52;14.10;;;4.03;;
25667;SDS011;18003;-33.830;151.202;2023-04-24T12:51:24;9.25;;;3.70;;
25667;SDS011;18003;-33.830;151.202;2023-04-24T12:53:54;13.48;;;3.92;;
25667;SDS011;18003;-33.830;151.202;2023-04-24T12:56:25;7.45;;;3.67;;
25667;SDS011;18003;-33.830;151.202;2023-04-24T12:58:55;11.18;;;3.60;;
25667;SDS011;18003;-33.830;151.202;2023-04-24T13:01:25;8.00;;;3.35;;
25667;SDS011;18003;-33.830;151.202;2023-04-24T13:03:56;6.35;;;3.65;;
25667;SDS011;18003;-33.830;151.202;2023-04-24T13:06:26;11.38;;;3.67;;
25667;SDS011;18003;-33.830;151.202;2023-04-24T13:08:56;8.23;;;3.70;;
25667;SDS011;18003;-33.830;151.202;2023-04-24T13:11:26;8.08;;;3.50;;
25667;SDS011;18003;-33.830;151.202;2023-04-24T13:13:56;9.98;;;3.70;;
25667;SDS011;18003;-33.830;151.202;2023-04-24T13:16:26;9.10;;;3.77;;
25667;SDS011;18003;-33.830;151.202;2023-04-24T13:19:02;10.68;;;4.03;;
25667;SDS011;18003;-33.830;151.202;2023-04-24T13:21:32;8.35;;;3.40;;
25667;SDS011;18003;-33.830;151.202;2023-04-24T13:24:02;9.10;;;3.55;;
25667;SDS011;18003;-33.830;151.202;2023-04-24T13:26:33;10.32;;;3.50;;
25667;SDS011;18003;-33.830;151.202;2023-04-24T13:29:04;12.58;;;4.70;;
25667;SDS011;18003;-33.830;151.202;2023-04-24T13:31:34;9.90;;;4.67;;
25667;SDS011;18003;-33.830;151.202;2023-04-24T13:34:04;8.50;;;3.67;;
25667;SDS011;18003;-33.830;151.202;2023-04-24T13:36:34;11.10;;;3.95;;
25667;SDS011;18003;-33.830;151.202;2023-04-24T13:39:08;9.48;;;3.50;;
25667;SDS011;18003;-33.830;151.202;2023-04-24T13:44:11;7.78;;;3.12;;
25667;SDS011;18003;-33.830;151.202;2023-04-24T13:46:41;8.25;;;3.55;;
25667;SDS011;18003;-33.830;151.202;2023-04-24T13:49:16;9.53;;;3.33;;
25667;SDS011;18003;-33.830;151.202;2023-04-24T13:51:44;11.03;;;3.60;;
25667;SDS011;18003;-33.830;151.202;2023-04-24T13:54:17;10.25;;;3.30;;
25667;SDS011;18003;-33.830;151.202;2023-04-24T13:56:47;8.50;;;3.40;;
25667;SDS011;18003;-33.830;151.202;2023-04-24T13:59:17;9.70;;;3.27;;
25667;SDS011;18003;-33.830;151.202;2023-04-24T14:01:49;8.98;;;3.08;;
25667;SDS011;18003;-33.830;151.202;2023-04-24T14:04:19;8.63;;;2.95;;
25667;SDS011;18003;-33.830;151.202;2023-04-24T14:06:49;7.28;;;3.00;;
25667;SDS011;18003;-33.830;151.202;2023-04-24T14:09:19;6.67;;;2.98;;
25667;SDS011;18003;-33.830;151.202;2023-04-24T14:11:56;10.15;;;3.27;;
25667;SDS011;18003;-33.830;151.202;2023-04-24T14:14:22;10.00;;;3.45;;
25667;SDS011;18003;-33.830;151.202;2023-04-24T14:16:52;8.98;;;3.08;;
25667;SDS011;18003;-33.830;151.202;2023-04-24T14:19:22;8.45;;;3.15;;
25667;SDS011;18003;-33.830;151.202;2023-04-24T14:21:53;7.78;;;3.12;;
25667;SDS011;18003;-33.830;151.202;2023-04-24T14:24:26;7.42;;;2.80;;
25667;SDS011;18003;-33.830;151.202;2023-04-24T14:26:59;10.58;;;3.35;;
25667;SDS011;18003;-33.830;151.202;2023-04-24T14:29:30;12.00;;;3.50;;
25667;SDS011;18003;-33.830;151.202;2023-04-24T14:32:00;7.15;;;2.87;;
25667;SDS011;18003;-33.830;151.202;2023-04-24T14:34:30;10.05;;;3.20;;
25667;SDS011;18003;-33.830;151.202;2023-04-24T14:37:00;7.83;;;3.27;;
25667;SDS011;18003;-33.830;151.202;2023-04-24T14:39:36;9.23;;;3.45;;
25667;SDS011;18003;-33.830;151.202;2023-04-24T14:42:05;10.25;;;3.60;;
25667;SDS011;18003;-33.830;151.202;2023-04-24T14:44:35;8.33;;;3.17;;
25667;SDS011;18003;-33.830;151.202;2023-04-24T14:47:05;8.73;;;3.08;;
25667;SDS011;18003;-33.830;151.202;2023-04-24T14:49:35;9.45;;;3.05;;
25667;SDS011;18003;-33.830;151.202;2023-04-24T14:52:05;8.63;;;2.87;;
25667;SDS011;18003;-33.830;151.202;2023-04-24T14:54:35;6.35;;;2.70;;
25667;SDS011;18003;-33.830;151.202;2023-04-24T14:57:05;8.35;;;2.90;;
25667;SDS011;18003;-33.830;151.202;2023-04-24T14:59:35;6.55;;;2.67;;
25667;SDS011;18003;-33.830;151.202;2023-04-24T15:02:17;8.28;;;3.00;;
25667;SDS011;18003;-33.830;151.202;2023-04-24T15:04:47;11.73;;;3.42;;
25667;SDS011;18003;-33.830;151.202;2023-04-24T15:07:16;10.58;;;3.25;;
25667;SDS011;18003;-33.830;151.202;2023-04-24T15:09:46;8.60;;;2.90;;
25667;SDS011;18003;-33.830;151.202;2023-04-24T15:12:17;10.38;;;3.58;;